createdAt,value
2023-01-19T00:04:12.272Z,53.30
2023-01-19T00:09:15.027Z,45.60
2023-01-19T00:14:17.792Z,41.70
2023-01-19T00:19:20.540Z,36.50
2023-01-19T00:24:23.304Z,39.40
2023-01-19T00:29:27.772Z,39.90
2023-01-19T00:34:39.777Z,39.40
2023-01-19T00:39:43.602Z,39.90
2023-01-19T00:44:46.517Z,44.20
2023-01-19T00:49:49.223Z,47.50
2023-01-19T00:54:52.257Z,42.80
2023-01-19T00:59:55.293Z,40.60
2023-01-19T01:04:58.130Z,37.40
2023-01-19T01:10:01.578Z,43.20
2023-01-19T01:15:06.489Z,39.70
2023-01-19T01:20:10.304Z,41.90
2023-01-19T01:25:15.397Z,43.90
2023-01-19T01:30:19.588Z,45.40
2023-01-19T01:35:22.366Z,40.80
2023-01-19T01:40:25.093Z,38.90
2023-01-19T01:45:36.470Z,44.70
2023-01-19T01:51:05.831Z,41.20
2023-01-19T01:56:17.773Z,38.50
2023-01-19T02:01:39.527Z,43.50
2023-01-19T02:07:01.196Z,43.30
2023-01-19T02:12:22.865Z,38.10
2023-01-19T02:17:26.167Z,38.20
2023-01-19T02:22:36.270Z,37.80
2023-01-19T02:27:39.669Z,37.40
2023-01-19T02:32:43.168Z,37.90
2023-01-19T02:37:47.319Z,35.20
2023-01-19T02:42:52.313Z,39.50
2023-01-19T02:47:55.079Z,41.40
2023-01-19T02:53:19.539Z,42.40
2023-01-19T02:59:09.352Z,40.60
2023-01-19T03:04:31.654Z,39.80
2023-01-19T03:09:52.769Z,41.30
2023-01-19T03:15:01.204Z,41.90
2023-01-19T03:20:07.231Z,41.40
2023-01-19T03:25:10.339Z,43.30
2023-01-19T03:30:24.235Z,42.40
2023-01-19T03:35:31.912Z,39.30
2023-01-19T03:40:36.700Z,38.90
2023-01-19T03:45:40.119Z,40.50
2023-01-19T03:50:42.993Z,41.00
2023-01-19T03:55:48.415Z,36.30
2023-01-19T04:00:51.186Z,36.10
2023-01-19T04:05:56.408Z,40.30
2023-01-19T04:10:59.249Z,37.70
2023-01-19T04:16:04.114Z,38.00
2023-01-19T04:21:09.519Z,51.00
2023-01-19T04:26:13.080Z,55.30
2023-01-19T04:31:15.918Z,50.70
2023-01-19T04:36:18.755Z,52.00
2023-01-19T04:41:21.675Z,43.40
2023-01-19T04:46:24.467Z,50.80
2023-01-19T04:51:28.803Z,57.60
2023-01-19T04:56:31.542Z,52.70
2023-01-19T05:01:34.363Z,42.50
2023-01-19T05:06:37.554Z,46.40
2023-01-19T05:11:40.280Z,40.30
2023-01-19T05:16:43.081Z,38.60
2023-01-19T05:21:45.810Z,31.20
2023-01-19T05:26:48.576Z,33.00
2023-01-19T05:31:51.307Z,39.00
2023-01-19T05:36:54.172Z,36.70
2023-01-19T05:41:56.950Z,38.70
2023-01-19T05:47:00.769Z,44.90
2023-01-19T05:52:03.660Z,48.10
2023-01-19T05:57:08.911Z,40.10
2023-01-19T06:02:11.822Z,47.20
2023-01-19T06:07:14.654Z,45.70
2023-01-19T06:12:17.438Z,47.70
2023-01-19T06:17:20.659Z,49.90
2023-01-19T06:22:23.785Z,55.90
2023-01-19T06:27:26.635Z,62.70
2023-01-19T06:32:29.377Z,58.10
2023-01-19T06:37:32.220Z,51.90
2023-01-19T06:42:34.974Z,48.30
2023-01-19T06:47:37.828Z,38.30
2023-01-19T06:52:42.520Z,34.40
2023-01-19T06:57:46.177Z,40.40
2023-01-19T07:02:49.264Z,37.90
2023-01-19T07:07:54.055Z,41.20
2023-01-19T07:12:58.267Z,40.70
2023-01-19T07:18:05.674Z,44.80
2023-01-19T07:23:09.491Z,46.50
2023-01-19T07:28:15.734Z,46.00
2023-01-19T07:33:18.806Z,66.90
2023-01-19T07:38:23.016Z,35.50
2023-01-19T07:43:25.874Z,46.20
2023-01-19T07:48:29.154Z,54.60
2023-01-19T07:53:32.894Z,53.30
2023-01-19T07:58:35.852Z,35.40
2023-01-19T08:03:39.446Z,37.50
2023-01-19T08:08:42.281Z,45.30
2023-01-19T08:13:48.016Z,34.80
2023-01-19T08:18:50.877Z,41.70
2023-01-19T08:23:54.956Z,40.60
2023-01-19T08:29:01.074Z,42.90
2023-01-19T08:34:04.839Z,41.60
2023-01-19T08:39:12.342Z,44.10
2023-01-19T08:44:16.050Z,46.00
2023-01-19T08:49:18.921Z,43.60
2023-01-19T08:54:25.190Z,43.00
2023-01-19T08:59:40.634Z,46.90
2023-01-19T09:04:44.559Z,52.20
2023-01-19T09:09:47.828Z,44.30
2023-01-19T09:14:50.693Z,51.80
2023-01-19T09:19:54.193Z,51.10
2023-01-19T09:24:57.063Z,51.00
2023-01-19T09:29:59.897Z,53.70
2023-01-19T09:35:02.820Z,50.90
2023-01-19T09:40:07.067Z,66.30
2023-01-19T09:45:25.414Z,45.50
2023-01-19T09:50:34.198Z,53.00
2023-01-19T09:55:39.745Z,57.70
2023-01-19T10:01:25.194Z,54.40
2023-01-19T10:06:56.398Z,47.70
2023-01-19T10:12:22.325Z,52.70
2023-01-19T10:17:42.137Z,47.00
2023-01-19T10:22:49.716Z,51.70
2023-01-19T10:27:52.629Z,47.90
2023-01-19T10:32:55.471Z,34.20
2023-01-19T10:38:02.032Z,40.90
2023-01-19T10:43:41.333Z,38.40
2023-01-19T10:48:52.310Z,38.30
2023-01-19T10:54:03.997Z,43.60
2023-01-19T10:59:07.799Z,36.30
2023-01-19T11:04:28.894Z,36.80
2023-01-19T11:09:31.749Z,34.10
2023-01-19T11:14:34.697Z,31.00
2023-01-19T11:19:37.545Z,31.60
2023-01-19T11:24:40.486Z,32.60
2023-01-19T11:30:01.812Z,38.00
2023-01-19T11:35:41.174Z,35.40
2023-01-19T11:40:59.102Z,47.60
2023-01-19T11:46:03.107Z,45.00
2023-01-19T11:51:10.418Z,48.10
2023-01-19T11:56:15.664Z,60.60
2023-01-19T12:01:24.886Z,37.20
2023-01-19T12:06:41.467Z,36.30
2023-01-19T12:11:50.834Z,39.10
2023-01-19T12:16:58.125Z,36.40
2023-01-19T12:22:01.763Z,37.50
2023-01-19T12:27:18.497Z,35.00
2023-01-19T12:32:34.566Z,36.00
2023-01-19T12:37:41.303Z,36.80
2023-01-19T12:43:00.987Z,35.90
2023-01-19T12:48:04.922Z,36.90
2023-01-19T12:53:20.186Z,38.50
2023-01-19T12:58:25.291Z,39.90
2023-01-19T13:03:29.297Z,38.50
2023-01-19T13:08:57.253Z,39.70
2023-01-19T13:14:00.093Z,39.30
2023-01-19T13:19:06.333Z,46.40
2023-01-19T13:24:15.209Z,73.00
2023-01-19T13:29:46.026Z,49.70
2023-01-19T13:34:58.633Z,37.80
2023-01-19T13:40:02.845Z,36.70
2023-01-19T13:45:25.143Z,52.20
2023-01-19T13:50:33.902Z,33.30
2023-01-19T13:55:36.746Z,37.80
2023-01-19T14:00:46.092Z,40.70
2023-01-19T14:05:54.049Z,36.30
2023-01-19T14:10:56.815Z,42.00
2023-01-19T14:16:23.813Z,44.70
2023-01-19T14:21:38.315Z,50.20
2023-01-19T14:26:49.265Z,44.70
2023-01-19T14:32:00.935Z,44.40
2023-01-19T14:37:15.495Z,60.40
2023-01-19T14:43:20.237Z,53.40
2023-01-19T14:48:29.442Z,40.90
2023-01-19T14:53:37.197Z,51.20
2023-01-19T14:58:40.021Z,43.10
2023-01-19T15:03:45.178Z,36.20
2023-01-19T15:08:53.806Z,40.40
2023-01-19T15:14:04.402Z,51.30
2023-01-19T15:19:11.554Z,45.00
2023-01-19T15:29:26.312Z,46.50
2023-01-19T15:34:29.152Z,53.00
2023-01-19T15:39:32.614Z,45.10
2023-01-19T15:44:35.492Z,52.60
2023-01-19T15:49:38.470Z,53.40
2023-01-19T15:54:41.231Z,52.60
2023-01-19T15:59:44.174Z,48.40
2023-01-19T16:04:50.463Z,47.60
2023-01-19T16:09:53.330Z,40.50
2023-01-19T16:14:56.161Z,49.30
2023-01-19T16:19:59.201Z,43.80
2023-01-19T16:25:02.169Z,48.80
2023-01-19T16:30:07.441Z,49.70
2023-01-19T16:35:10.563Z,45.00
2023-01-19T16:40:13.537Z,50.70
2023-01-19T16:45:16.467Z,58.80
2023-01-19T16:50:19.634Z,50.00
2023-01-19T16:55:22.394Z,56.20
2023-01-19T17:00:25.351Z,44.70
2023-01-19T17:05:28.224Z,46.00
2023-01-19T17:10:31.413Z,51.50
2023-01-19T17:15:34.726Z,50.30
2023-01-19T17:20:37.579Z,61.60
2023-01-19T17:25:40.430Z,62.20
2023-01-19T17:30:43.307Z,57.90
2023-01-19T17:35:46.955Z,73.20
2023-01-19T17:40:50.011Z,54.20
2023-01-19T17:45:52.905Z,58.40
2023-01-19T17:51:02.343Z,61.60
2023-01-19T17:56:07.419Z,50.80
2023-01-19T18:01:16.232Z,59.90
2023-01-19T18:06:20.212Z,71.60
2023-01-19T18:11:23.395Z,62.30
2023-01-19T18:16:29.425Z,59.70
2023-01-19T18:21:32.241Z,53.70
2023-01-19T18:26:35.846Z,60.30
2023-01-19T18:31:38.868Z,52.40
2023-01-19T18:36:41.882Z,52.90
2023-01-19T18:41:44.767Z,49.40
2023-01-19T18:46:47.753Z,45.20
2023-01-19T18:51:50.486Z,59.20
2023-01-19T18:56:53.294Z,45.40
2023-01-19T19:01:56.178Z,48.60
2023-01-19T19:06:58.982Z,80.20
2023-01-19T19:12:01.830Z,72.60
2023-01-19T19:17:04.599Z,66.40
2023-01-19T19:22:07.438Z,65.30
2023-01-19T19:27:14.228Z,49.20
2023-01-19T19:32:20.511Z,58.10
2023-01-19T19:37:23.416Z,49.90
2023-01-19T19:42:26.350Z,47.00
2023-01-19T19:47:30.657Z,44.00
2023-01-19T19:52:41.049Z,45.20
2023-01-19T19:57:44.001Z,41.70
2023-01-19T20:02:46.809Z,40.40
2023-01-19T20:07:49.630Z,39.30
2023-01-19T20:12:52.445Z,35.70
2023-01-19T20:17:56.282Z,47.00
2023-01-19T20:23:02.302Z,42.70
2023-01-19T20:28:05.985Z,49.40
2023-01-19T20:33:08.787Z,50.60
2023-01-19T20:38:11.720Z,61.20
2023-01-19T20:43:14.916Z,57.90
2023-01-19T20:48:17.696Z,41.90
2023-01-19T20:53:20.577Z,45.90
2023-01-19T20:58:23.730Z,43.30
2023-01-19T21:03:26.435Z,27.30
2023-01-19T21:08:29.209Z,32.00
2023-01-19T21:13:32.415Z,30.10
2023-01-19T21:18:35.329Z,33.30
2023-01-19T21:23:38.082Z,30.30
2023-01-19T21:28:41.452Z,28.10
2023-01-19T21:33:44.313Z,31.10
2023-01-19T21:38:47.264Z,25.90
2023-01-19T21:43:50.059Z,35.10
2023-01-19T21:48:52.803Z,33.30
2023-01-19T21:53:59.667Z,28.60
2023-01-19T22:04:06.560Z,33.80
2023-01-19T22:09:09.317Z,35.50
2023-01-19T22:14:12.128Z,28.80
2023-01-19T22:19:14.840Z,35.20
2023-01-19T22:24:17.658Z,36.90
2023-01-19T22:29:20.408Z,38.80
2023-01-19T22:34:23.169Z,44.20
2023-01-19T22:39:25.944Z,42.10
2023-01-19T22:44:28.667Z,41.50
2023-01-19T22:49:31.400Z,38.70
2023-01-19T22:54:34.256Z,43.10
2023-01-19T22:59:36.977Z,33.90
2023-01-19T23:04:39.747Z,35.60
2023-01-19T23:09:42.723Z,41.40
2023-01-19T23:14:45.441Z,37.70
2023-01-19T23:19:48.201Z,40.10
2023-01-19T23:24:50.920Z,41.90
2023-01-19T23:29:53.668Z,39.30
2023-01-19T23:34:56.372Z,41.80
2023-01-19T23:39:59.108Z,45.60
2023-01-19T23:45:02.224Z,54.00
2023-01-19T23:50:07.711Z,51.10
2023-01-19T23:55:10.492Z,40.80
